sensor_id;sensor_type;location;lat;lon;timestamp;temperature;humidity
11824;DHT22;5969;50.780;7.726;2023-03-23T00:01:27;10.80;99.90
11824;DHT22;5969;50.780;7.726;2023-03-23T00:04:05;10.80;99.90
11824;DHT22;5969;50.780;7.726;2023-03-23T00:06:32;10.70;99.90
11824;DHT22;5969;50.780;7.726;2023-03-23T00:09:00;10.60;99.90
11824;DHT22;5969;50.780;7.726;2023-03-23T00:11:29;10.70;99.90
11824;DHT22;5969;50.780;7.726;2023-03-23T00:13:59;10.80;99.90
11824;DHT22;5969;50.780;7.726;2023-03-23T00:16:29;10.80;99.90
11824;DHT22;5969;50.780;7.726;2023-03-23T00:19:08;10.90;99.90
11824;DHT22;5969;50.780;7.726;2023-03-23T00:21:37;10.80;99.90
11824;DHT22;5969;50.780;7.726;2023-03-23T00:24:05;10.80;99.90
11824;DHT22;5969;50.780;7.726;2023-03-23T00:26:34;10.90;99.90
11824;DHT22;5969;50.780;7.726;2023-03-23T00:29:04;10.80;99.90
11824;DHT22;5969;50.780;7.726;2023-03-23T00:31:31;10.80;99.90
11824;DHT22;5969;50.780;7.726;2023-03-23T00:33:59;10.90;99.90
11824;DHT22;5969;50.780;7.726;2023-03-23T00:36:29;10.90;99.90
11824;DHT22;5969;50.780;7.726;2023-03-23T00:38:56;10.90;99.90
11824;DHT22;5969;50.780;7.726;2023-03-23T00:41:25;10.90;99.90
11824;DHT22;5969;50.780;7.726;2023-03-23T00:43:54;10.90;99.90
11824;DHT22;5969;50.780;7.726;2023-03-23T00:46:22;11.00;99.90
11824;DHT22;5969;50.780;7.726;2023-03-23T00:48:50;11.10;99.90
11824;DHT22;5969;50.780;7.726;2023-03-23T00:51:18;11.10;99.90
11824;DHT22;5969;50.780;7.726;2023-03-23T00:53:45;11.20;99.90
11824;DHT22;5969;50.780;7.726;2023-03-23T00:56:12;11.30;99.90
11824;DHT22;5969;50.780;7.726;2023-03-23T00:58:40;11.30;99.90
11824;DHT22;5969;50.780;7.726;2023-03-23T01:01:07;11.20;99.90
11824;DHT22;5969;50.780;7.726;2023-03-23T01:03:36;11.20;99.90
11824;DHT22;5969;50.780;7.726;2023-03-23T01:06:08;11.10;99.90
11824;DHT22;5969;50.780;7.726;2023-03-23T01:08:38;11.10;99.90
11824;DHT22;5969;50.780;7.726;2023-03-23T01:11:12;11.20;99.90
11824;DHT22;5969;50.780;7.726;2023-03-23T01:13:40;11.30;99.90
11824;DHT22;5969;50.780;7.726;2023-03-23T01:16:07;11.30;99.90
11824;DHT22;5969;50.780;7.726;2023-03-23T01:18:36;11.40;99.90
11824;DHT22;5969;50.780;7.726;2023-03-23T01:21:07;11.40;99.90
11824;DHT22;5969;50.780;7.726;2023-03-23T01:23:36;11.50;99.90
11824;DHT22;5969;50.780;7.726;2023-03-23T01:26:04;11.50;99.90
11824;DHT22;5969;50.780;7.726;2023-03-23T01:28:31;11.40;99.90
11824;DHT22;5969;50.780;7.726;2023-03-23T01:31:01;11.40;99.90
11824;DHT22;5969;50.780;7.726;2023-03-23T01:33:29;11.40;99.90
11824;DHT22;5969;50.780;7.726;2023-03-23T01:35:57;11.40;99.90
11824;DHT22;5969;50.780;7.726;2023-03-23T01:38:24;11.30;99.90
11824;DHT22;5969;50.780;7.726;2023-03-23T01:40:51;11.20;99.90
11824;DHT22;5969;50.780;7.726;2023-03-23T01:43:18;11.20;99.90
11824;DHT22;5969;50.780;7.726;2023-03-23T01:45:45;11.10;99.90
11824;DHT22;5969;50.780;7.726;2023-03-23T01:48:16;11.00;99.90
11824;DHT22;5969;50.780;7.726;2023-03-23T01:50:50;11.00;99.90
11824;DHT22;5969;50.780;7.726;2023-03-23T01:53:20;11.00;99.90
11824;DHT22;5969;50.780;7.726;2023-03-23T01:55:50;10.90;99.90
11824;DHT22;5969;50.780;7.726;2023-03-23T01:58:22;10.90;99.90
11824;DHT22;5969;50.780;7.726;2023-03-23T02:00:51;10.70;99.90
11824;DHT22;5969;50.780;7.726;2023-03-23T02:03:19;10.60;99.90
11824;DHT22;5969;50.780;7.726;2023-03-23T02:05:49;10.60;99.90
11824;DHT22;5969;50.780;7.726;2023-03-23T02:08:19;10.50;99.90
11824;DHT22;5969;50.780;7.726;2023-03-23T02:10:47;10.50;99.90
11824;DHT22;5969;50.780;7.726;2023-03-23T02:13:14;10.40;99.90
11824;DHT22;5969;50.780;7.726;2023-03-23T02:15:48;10.40;99.90
11824;DHT22;5969;50.780;7.726;2023-03-23T02:18:46;10.50;99.90
11824;DHT22;5969;50.780;7.726;2023-03-23T02:27:51;10.40;99.90
11824;DHT22;5969;50.780;7.726;2023-03-23T02:30:33;10.30;99.90
11824;DHT22;5969;50.780;7.726;2023-03-23T02:33:40;10.30;99.90
11824;DHT22;5969;50.780;7.726;2023-03-23T02:36:14;10.30;99.90
11824;DHT22;5969;50.780;7.726;2023-03-23T02:38:54;10.30;99.90
11824;DHT22;5969;50.780;7.726;2023-03-23T02:41:24;10.30;99.90
11824;DHT22;5969;50.780;7.726;2023-03-23T02:43:52;10.20;99.90
11824;DHT22;5969;50.780;7.726;2023-03-23T02:46:20;10.20;99.90
11824;DHT22;5969;50.780;7.726;2023-03-23T02:48:50;10.30;99.90
11824;DHT22;5969;50.780;7.726;2023-03-23T02:51:19;10.20;99.90
11824;DHT22;5969;50.780;7.726;2023-03-23T02:53:49;10.20;99.90
11824;DHT22;5969;50.780;7.726;2023-03-23T02:56:19;10.20;99.90
11824;DHT22;5969;50.780;7.726;2023-03-23T02:58:47;10.20;99.90
11824;DHT22;5969;50.780;7.726;2023-03-23T03:04:29;10.10;99.90
11824;DHT22;5969;50.780;7.726;2023-03-23T03:07:07;10.00;99.90
11824;DHT22;5969;50.780;7.726;2023-03-23T03:09:46;10.00;99.90
11824;DHT22;5969;50.780;7.726;2023-03-23T03:12:19;9.90;99.90
11824;DHT22;5969;50.780;7.726;2023-03-23T03:14:52;10.00;99.90
11824;DHT22;5969;50.780;7.726;2023-03-23T03:17:24;10.00;99.90
11824;DHT22;5969;50.780;7.726;2023-03-23T03:19:56;10.00;99.90
11824;DHT22;5969;50.780;7.726;2023-03-23T03:22:25;10.00;99.90
11824;DHT22;5969;50.780;7.726;2023-03-23T03:24:56;10.10;99.90
11824;DHT22;5969;50.780;7.726;2023-03-23T03:27:24;10.20;99.90
11824;DHT22;5969;50.780;7.726;2023-03-23T03:29:55;10.10;99.90
11824;DHT22;5969;50.780;7.726;2023-03-23T03:32:29;10.10;99.90
11824;DHT22;5969;50.780;7.726;2023-03-23T03:35:00;10.00;99.90
11824;DHT22;5969;50.780;7.726;2023-03-23T03:37:33;10.00;99.90
11824;DHT22;5969;50.780;7.726;2023-03-23T03:40:03;10.00;99.90
11824;DHT22;5969;50.780;7.726;2023-03-23T03:42:36;9.90;99.90
11824;DHT22;5969;50.780;7.726;2023-03-23T03:45:04;9.90;99.90
11824;DHT22;5969;50.780;7.726;2023-03-23T03:47:31;9.80;99.90
11824;DHT22;5969;50.780;7.726;2023-03-23T03:49:59;9.80;99.90
11824;DHT22;5969;50.780;7.726;2023-03-23T03:52:33;9.70;99.90
11824;DHT22;5969;50.780;7.726;2023-03-23T03:54:59;9.70;99.90
11824;DHT22;5969;50.780;7.726;2023-03-23T03:57:26;9.80;99.90
11824;DHT22;5969;50.780;7.726;2023-03-23T03:59:53;9.80;99.90
11824;DHT22;5969;50.780;7.726;2023-03-23T04:02:21;9.80;99.90
11824;DHT22;5969;50.780;7.726;2023-03-23T04:04:48;9.90;99.90
11824;DHT22;5969;50.780;7.726;2023-03-23T04:07:19;9.90;99.90
11824;DHT22;5969;50.780;7.726;2023-03-23T04:09:47;9.90;99.90
11824;DHT22;5969;50.780;7.726;2023-03-23T04:12:20;9.90;99.90
11824;DHT22;5969;50.780;7.726;2023-03-23T04:14:47;9.90;99.90
11824;DHT22;5969;50.780;7.726;2023-03-23T04:17:14;9.80;99.90
11824;DHT22;5969;50.780;7.726;2023-03-23T04:19:42;9.90;99.90
11824;DHT22;5969;50.780;7.726;2023-03-23T04:22:11;9.90;99.90
11824;DHT22;5969;50.780;7.726;2023-03-23T04:24:39;9.90;99.90
11824;DHT22;5969;50.780;7.726;2023-03-23T04:27:06;10.00;99.90
11824;DHT22;5969;50.780;7.726;2023-03-23T04:29:33;9.90;99.90
11824;DHT22;5969;50.780;7.726;2023-03-23T04:32:00;9.80;99.90
11824;DHT22;5969;50.780;7.726;2023-03-23T04:34:38;9.90;99.90
11824;DHT22;5969;50.780;7.726;2023-03-23T04:37:06;10.00;99.90
11824;DHT22;5969;50.780;7.726;2023-03-23T04:39:33;10.00;99.90
11824;DHT22;5969;50.780;7.726;2023-03-23T04:42:02;10.00;99.90
11824;DHT22;5969;50.780;7.726;2023-03-23T04:44:29;10.00;99.90
11824;DHT22;5969;50.780;7.726;2023-03-23T04:47:00;10.00;99.90
11824;DHT22;5969;50.780;7.726;2023-03-23T04:49:27;10.10;99.90
11824;DHT22;5969;50.780;7.726;2023-03-23T04:51:55;10.10;99.90
11824;DHT22;5969;50.780;7.726;2023-03-23T04:54:22;10.10;99.90
11824;DHT22;5969;50.780;7.726;2023-03-23T04:56:49;10.20;99.90
11824;DHT22;5969;50.780;7.726;2023-03-23T04:59:18;10.10;99.90
11824;DHT22;5969;50.780;7.726;2023-03-23T05:01:45;10.00;99.90
11824;DHT22;5969;50.780;7.726;2023-03-23T05:04:12;9.90;99.90
11824;DHT22;5969;50.780;7.726;2023-03-23T05:06:42;10.00;99.90
11824;DHT22;5969;50.780;7.726;2023-03-23T05:09:11;10.00;99.90
11824;DHT22;5969;50.780;7.726;2023-03-23T05:11:38;10.00;99.90
11824;DHT22;5969;50.780;7.726;2023-03-23T05:14:05;10.10;99.90
11824;DHT22;5969;50.780;7.726;2023-03-23T05:16:35;10.20;99.90
11824;DHT22;5969;50.780;7.726;2023-03-23T05:19:04;10.10;99.90
11824;DHT22;5969;50.780;7.726;2023-03-23T05:21:31;10.10;99.90
11824;DHT22;5969;50.780;7.726;2023-03-23T05:23:58;10.10;99.90
11824;DHT22;5969;50.780;7.726;2023-03-23T05:26:27;10.10;99.90
11824;DHT22;5969;50.780;7.726;2023-03-23T05:28:55;10.10;99.90
11824;DHT22;5969;50.780;7.726;2023-03-23T05:31:22;10.20;99.90
11824;DHT22;5969;50.780;7.726;2023-03-23T05:33:51;10.10;99.90
11824;DHT22;5969;50.780;7.726;2023-03-23T05:36:18;10.10;99.90
11824;DHT22;5969;50.780;7.726;2023-03-23T05:38:45;10.20;99.90
11824;DHT22;5969;50.780;7.726;2023-03-23T05:41:13;10.10;99.90
11824;DHT22;5969;50.780;7.726;2023-03-23T05:43:40;10.10;99.90
11824;DHT22;5969;50.780;7.726;2023-03-23T05:46:07;10.10;99.90
11824;DHT22;5969;50.780;7.726;2023-03-23T05:48:34;10.10;99.90
11824;DHT22;5969;50.780;7.726;2023-03-23T05:51:04;10.20;99.90
11824;DHT22;5969;50.780;7.726;2023-03-23T05:53:31;10.10;99.90
11824;DHT22;5969;50.780;7.726;2023-03-23T05:55:59;10.20;99.90
11824;DHT22;5969;50.780;7.726;2023-03-23T05:58:26;10.10;99.90
11824;DHT22;5969;50.780;7.726;2023-03-23T06:00:53;10.20;99.90
11824;DHT22;5969;50.780;7.726;2023-03-23T06:03:20;10.30;99.90
11824;DHT22;5969;50.780;7.726;2023-03-23T06:05:48;10.20;99.90
11824;DHT22;5969;50.780;7.726;2023-03-23T06:08:17;10.30;99.90
11824;DHT22;5969;50.780;7.726;2023-03-23T06:10:44;10.30;99.90
11824;DHT22;5969;50.780;7.726;2023-03-23T06:13:17;10.30;99.90
11824;DHT22;5969;50.780;7.726;2023-03-23T06:15:44;10.40;99.90
11824;DHT22;5969;50.780;7.726;2023-03-23T06:18:11;10.40;99.90
11824;DHT22;5969;50.780;7.726;2023-03-23T06:20:38;10.40;99.90
11824;DHT22;5969;50.780;7.726;2023-03-23T06:23:06;10.40;99.90
11824;DHT22;5969;50.780;7.726;2023-03-23T06:25:35;10.50;99.90
11824;DHT22;5969;50.780;7.726;2023-03-23T06:28:02;10.50;99.90
11824;DHT22;5969;50.780;7.726;2023-03-23T06:30:30;10.40;99.90
11824;DHT22;5969;50.780;7.726;2023-03-23T06:32:57;10.50;99.90
11824;DHT22;5969;50.780;7.726;2023-03-23T06:35:33;10.60;99.90
11824;DHT22;5969;50.780;7.726;2023-03-23T06:37:59;10.50;99.90
11824;DHT22;5969;50.780;7.726;2023-03-23T06:40:32;10.60;99.90
11824;DHT22;5969;50.780;7.726;2023-03-23T06:43:02;10.60;99.90
11824;DHT22;5969;50.780;7.726;2023-03-23T06:45:29;10.70;99.90
11824;DHT22;5969;50.780;7.726;2023-03-23T06:47:56;10.90;99.90
11824;DHT22;5969;50.780;7.726;2023-03-23T06:50:24;10.80;99.90
11824;DHT22;5969;50.780;7.726;2023-03-23T06:52:51;11.00;99.90
11824;DHT22;5969;50.780;7.726;2023-03-23T06:55:25;11.00;99.90
11824;DHT22;5969;50.780;7.726;2023-03-23T06:57:53;11.00;99.90
11824;DHT22;5969;50.780;7.726;2023-03-23T07:00:22;10.90;99.90
11824;DHT22;5969;50.780;7.726;2023-03-23T07:02:49;10.90;99.90
11824;DHT22;5969;50.780;7.726;2023-03-23T07:05:17;10.90;99.90
11824;DHT22;5969;50.780;7.726;2023-03-23T07:07:44;10.90;99.90
11824;DHT22;5969;50.780;7.726;2023-03-23T07:10:20;11.00;99.90
11824;DHT22;5969;50.780;7.726;2023-03-23T07:12:47;11.00;99.90
11824;DHT22;5969;50.780;7.726;2023-03-23T07:15:16;11.00;99.90
11824;DHT22;5969;50.780;7.726;2023-03-23T07:17:47;11.00;99.90
11824;DHT22;5969;50.780;7.726;2023-03-23T07:20:15;11.00;99.90
11824;DHT22;5969;50.780;7.726;2023-03-23T07:22:42;11.00;99.90
11824;DHT22;5969;50.780;7.726;2023-03-23T07:25:10;11.10;99.90
11824;DHT22;5969;50.780;7.726;2023-03-23T07:27:38;11.00;99.90
11824;DHT22;5969;50.780;7.726;2023-03-23T07:30:08;11.10;99.90
11824;DHT22;5969;50.780;7.726;2023-03-23T07:32:35;11.00;99.90
11824;DHT22;5969;50.780;7.726;2023-03-23T07:35:12;11.00;99.90
11824;DHT22;5969;50.780;7.726;2023-03-23T07:37:40;11.20;99.90
11824;DHT22;5969;50.780;7.726;2023-03-23T07:40:13;11.20;99.90
11824;DHT22;5969;50.780;7.726;2023-03-23T07:42:51;11.20;99.90
11824;DHT22;5969;50.780;7.726;2023-03-23T07:45:29;11.20;99.90
11824;DHT22;5969;50.780;7.726;2023-03-23T07:47:56;11.30;99.90
11824;DHT22;5969;50.780;7.726;2023-03-23T07:50:27;11.40;99.90
11824;DHT22;5969;50.780;7.726;2023-03-23T07:52:55;11.50;99.90
11824;DHT22;5969;50.780;7.726;2023-03-23T07:55:23;11.40;99.90
11824;DHT22;5969;50.780;7.726;2023-03-23T07:57:56;11.50;99.90
11824;DHT22;5969;50.780;7.726;2023-03-23T08:00:23;11.50;99.90
11824;DHT22;5969;50.780;7.726;2023-03-23T08:02:57;11.50;99.90
11824;DHT22;5969;50.780;7.726;2023-03-23T08:05:32;11.60;99.90
11824;DHT22;5969;50.780;7.726;2023-03-23T08:07:59;11.60;99.90
11824;DHT22;5969;50.780;7.726;2023-03-23T08:10:28;11.50;99.90
11824;DHT22;5969;50.780;7.726;2023-03-23T08:12:57;11.50;99.90
11824;DHT22;5969;50.780;7.726;2023-03-23T08:15:24;11.60;99.90
11824;DHT22;5969;50.780;7.726;2023-03-23T08:17:54;11.70;99.90
11824;DHT22;5969;50.780;7.726;2023-03-23T08:20:21;11.50;99.90
11824;DHT22;5969;50.780;7.726;2023-03-23T08:22:54;11.60;99.90
11824;DHT22;5969;50.780;7.726;2023-03-23T08:25:24;11.70;99.90
11824;DHT22;5969;50.780;7.726;2023-03-23T08:27:53;11.80;99.90
11824;DHT22;5969;50.780;7.726;2023-03-23T08:30:25;11.80;99.90
11824;DHT22;5969;50.780;7.726;2023-03-23T08:32:54;11.70;99.90
11824;DHT22;5969;50.780;7.726;2023-03-23T08:35:21;11.90;99.90
11824;DHT22;5969;50.780;7.726;2023-03-23T08:37:49;11.90;99.90
11824;DHT22;5969;50.780;7.726;2023-03-23T08:40:28;12.10;99.90
11824;DHT22;5969;50.780;7.726;2023-03-23T08:42:56;12.10;99.90
11824;DHT22;5969;50.780;7.726;2023-03-23T08:45:24;12.00;99.90
11824;DHT22;5969;50.780;7.726;2023-03-23T08:47:52;12.00;99.90
11824;DHT22;5969;50.780;7.726;2023-03-23T08:50:23;11.90;99.90
11824;DHT22;5969;50.780;7.726;2023-03-23T08:52:56;11.90;99.90
11824;DHT22;5969;50.780;7.726;2023-03-23T08:55:24;11.90;99.90
11824;DHT22;5969;50.780;7.726;2023-03-23T08:57:56;12.00;99.90
11824;DHT22;5969;50.780;7.726;2023-03-23T09:00:29;12.00;99.90
11824;DHT22;5969;50.780;7.726;2023-03-23T09:02:56;12.00;99.90
11824;DHT22;5969;50.780;7.726;2023-03-23T09:05:25;12.00;99.90
11824;DHT22;5969;50.780;7.726;2023-03-23T09:07:54;11.90;99.90
11824;DHT22;5969;50.780;7.726;2023-03-23T09:10:25;12.00;99.90
11824;DHT22;5969;50.780;7.726;2023-03-23T09:12:53;12.10;99.90
11824;DHT22;5969;50.780;7.726;2023-03-23T09:15:22;12.10;99.90
11824;DHT22;5969;50.780;7.726;2023-03-23T09:17:51;12.10;99.90
11824;DHT22;5969;50.780;7.726;2023-03-23T09:20:21;12.00;99.90
11824;DHT22;5969;50.780;7.726;2023-03-23T09:22:56;12.10;99.90
11824;DHT22;5969;50.780;7.726;2023-03-23T09:25:25;12.10;99.90
11824;DHT22;5969;50.780;7.726;2023-03-23T09:27:54;12.10;99.90
11824;DHT22;5969;50.780;7.726;2023-03-23T09:30:31;11.80;99.90
11824;DHT22;5969;50.780;7.726;2023-03-23T09:33:02;12.00;99.90
11824;DHT22;5969;50.780;7.726;2023-03-23T09:35:32;12.10;99.90
11824;DHT22;5969;50.780;7.726;2023-03-23T09:38:02;12.00;99.90
11824;DHT22;5969;50.780;7.726;2023-03-23T09:40:33;12.10;99.90
11824;DHT22;5969;50.780;7.726;2023-03-23T09:46:13;12.10;99.90
11824;DHT22;5969;50.780;7.726;2023-03-23T09:48:50;12.10;99.90
11824;DHT22;5969;50.780;7.726;2023-03-23T09:51:29;11.90;99.90
11824;DHT22;5969;50.780;7.726;2023-03-23T09:54:03;12.00;99.90
11824;DHT22;5969;50.780;7.726;2023-03-23T09:56:33;12.00;99.90
11824;DHT22;5969;50.780;7.726;2023-03-23T09:59:07;12.00;99.90
11824;DHT22;5969;50.780;7.726;2023-03-23T10:01:39;12.20;99.90
11824;DHT22;5969;50.780;7.726;2023-03-23T10:04:12;12.20;99.90
11824;DHT22;5969;50.780;7.726;2023-03-23T10:06:42;11.90;99.90
11824;DHT22;5969;50.780;7.726;2023-03-23T10:09:15;11.90;99.90
11824;DHT22;5969;50.780;7.726;2023-03-23T10:11:50;11.90;99.90
11824;DHT22;5969;50.780;7.726;2023-03-23T10:14:37;11.80;99.90
11824;DHT22;5969;50.780;7.726;2023-03-23T10:17:14;12.10;99.90
11824;DHT22;5969;50.780;7.726;2023-03-23T10:19:47;12.40;99.90
11824;DHT22;5969;50.780;7.726;2023-03-23T10:22:20;12.40;99.90
11824;DHT22;5969;50.780;7.726;2023-03-23T10:24:55;12.40;99.90
11824;DHT22;5969;50.780;7.726;2023-03-23T10:27:28;12.40;99.90
11824;DHT22;5969;50.780;7.726;2023-03-23T10:30:01;12.30;99.90
11824;DHT22;5969;50.780;7.726;2023-03-23T10:32:43;12.30;99.90
11824;DHT22;5969;50.780;7.726;2023-03-23T10:35:14;12.40;99.90
11824;DHT22;5969;50.780;7.726;2023-03-23T10:37:50;12.50;99.90
11824;DHT22;5969;50.780;7.726;2023-03-23T10:40:22;12.30;99.90
11824;DHT22;5969;50.780;7.726;2023-03-23T10:42:51;12.40;99.90
11824;DHT22;5969;50.780;7.726;2023-03-23T10:45:22;12.50;99.90
11824;DHT22;5969;50.780;7.726;2023-03-23T10:48:09;12.50;99.90
11824;DHT22;5969;50.780;7.726;2023-03-23T10:50:41;12.60;99.90
11824;DHT22;5969;50.780;7.726;2023-03-23T10:53:15;12.60;99.90
11824;DHT22;5969;50.780;7.726;2023-03-23T10:55:42;12.60;99.90
11824;DHT22;5969;50.780;7.726;2023-03-23T10:58:24;12.60;99.90
11824;DHT22;5969;50.780;7.726;2023-03-23T11:00:55;12.60;99.90
11824;DHT22;5969;50.780;7.726;2023-03-23T11:03:33;12.60;99.90
11824;DHT22;5969;50.780;7.726;2023-03-23T11:06:02;12.40;99.90
11824;DHT22;5969;50.780;7.726;2023-03-23T11:08:33;12.50;99.90
11824;DHT22;5969;50.780;7.726;2023-03-23T11:11:09;12.40;99.90
11824;DHT22;5969;50.780;7.726;2023-03-23T11:13:40;12.40;99.90
11824;DHT22;5969;50.780;7.726;2023-03-23T11:16:21;12.40;99.90
11824;DHT22;5969;50.780;7.726;2023-03-23T11:19:14;12.40;99.90
11824;DHT22;5969;50.780;7.726;2023-03-23T11:21:49;12.40;99.90
11824;DHT22;5969;50.780;7.726;2023-03-23T11:24:17;12.50;99.90
11824;DHT22;5969;50.780;7.726;2023-03-23T11:26:45;12.70;99.90
11824;DHT22;5969;50.780;7.726;2023-03-23T11:29:15;12.70;99.90
11824;DHT22;5969;50.780;7.726;2023-03-23T11:31:45;12.80;99.90
11824;DHT22;5969;50.780;7.726;2023-03-23T11:34:18;12.60;99.90
11824;DHT22;5969;50.780;7.726;2023-03-23T11:36:49;12.90;99.90
11824;DHT22;5969;50.780;7.726;2023-03-23T11:39:22;13.30;99.90
11824;DHT22;5969;50.780;7.726;2023-03-23T11:41:50;13.40;99.90
11824;DHT22;5969;50.780;7.726;2023-03-23T11:44:16;13.20;99.90
11824;DHT22;5969;50.780;7.726;2023-03-23T11:46:55;13.40;99.90
11824;DHT22;5969;50.780;7.726;2023-03-23T11:49:32;13.60;99.90
11824;DHT22;5969;50.780;7.726;2023-03-23T11:52:08;13.50;99.90
11824;DHT22;5969;50.780;7.726;2023-03-23T11:54:40;13.40;99.90
11824;DHT22;5969;50.780;7.726;2023-03-23T11:57:10;13.20;99.90
11824;DHT22;5969;50.780;7.726;2023-03-23T11:59:39;13.30;99.90
11824;DHT22;5969;50.780;7.726;2023-03-23T12:02:30;13.40;99.90
11824;DHT22;5969;50.780;7.726;2023-03-23T12:05:28;13.80;99.90
11824;DHT22;5969;50.780;7.726;2023-03-23T12:08:07;14.10;99.90
11824;DHT22;5969;50.780;7.726;2023-03-23T12:10:42;14.00;99.90
11824;DHT22;5969;50.780;7.726;2023-03-23T12:13:26;14.20;99.90
11824;DHT22;5969;50.780;7.726;2023-03-23T12:16:03;14.50;99.90
11824;DHT22;5969;50.780;7.726;2023-03-23T12:18:40;15.50;99.90
11824;DHT22;5969;50.780;7.726;2023-03-23T12:21:17;17.40;99.90
11824;DHT22;5969;50.780;7.726;2023-03-23T12:23:53;18.70;99.90
11824;DHT22;5969;50.780;7.726;2023-03-23T12:26:25;20.40;99.90
11824;DHT22;5969;50.780;7.726;2023-03-23T12:29:16;20.20;99.90
11824;DHT22;5969;50.780;7.726;2023-03-23T12:31:59;18.60;99.90
11824;DHT22;5969;50.780;7.726;2023-03-23T12:34:35;17.70;99.90
11824;DHT22;5969;50.780;7.726;2023-03-23T12:37:23;16.80;99.90
11824;DHT22;5969;50.780;7.726;2023-03-23T12:40:09;16.30;99.90
11824;DHT22;5969;50.780;7.726;2023-03-23T12:42:52;15.70;99.90
11824;DHT22;5969;50.780;7.726;2023-03-23T12:48:11;14.90;99.90
11824;DHT22;5969;50.780;7.726;2023-03-23T12:50:42;14.90;99.90
11824;DHT22;5969;50.780;7.726;2023-03-23T12:53:17;15.10;99.90
11824;DHT22;5969;50.780;7.726;2023-03-23T12:55:47;15.10;99.90
11824;DHT22;5969;50.780;7.726;2023-03-23T12:58:20;14.80;99.90
11824;DHT22;5969;50.780;7.726;2023-03-23T13:00:55;14.70;99.90
11824;DHT22;5969;50.780;7.726;2023-03-23T13:03:27;14.80;99.90
11824;DHT22;5969;50.780;7.726;2023-03-23T13:06:03;15.00;99.90
11824;DHT22;5969;50.780;7.726;2023-03-23T13:08:36;15.00;99.90
11824;DHT22;5969;50.780;7.726;2023-03-23T13:11:10;15.00;99.90
11824;DHT22;5969;50.780;7.726;2023-03-23T13:13:46;15.30;99.90
11824;DHT22;5969;50.780;7.726;2023-03-23T13:16:22;15.30;99.90
11824;DHT22;5969;50.780;7.726;2023-03-23T13:18:59;15.40;99.90
11824;DHT22;5969;50.780;7.726;2023-03-23T13:21:30;15.30;99.90
11824;DHT22;5969;50.780;7.726;2023-03-23T13:24:02;15.20;99.90
11824;DHT22;5969;50.780;7.726;2023-03-23T13:26:30;15.20;99.90
11824;DHT22;5969;50.780;7.726;2023-03-23T13:28:59;14.80;99.90
11824;DHT22;5969;50.780;7.726;2023-03-23T13:31:28;14.90;99.90
11824;DHT22;5969;50.780;7.726;2023-03-23T13:34:01;14.80;99.90
11824;DHT22;5969;50.780;7.726;2023-03-23T13:36:31;14.70;99.90
11824;DHT22;5969;50.780;7.726;2023-03-23T13:39:02;14.50;99.90
11824;DHT22;5969;50.780;7.726;2023-03-23T13:41:33;14.40;99.90
11824;DHT22;5969;50.780;7.726;2023-03-23T13:44:17;14.50;99.90
11824;DHT22;5969;50.780;7.726;2023-03-23T13:46:55;14.30;99.90
11824;DHT22;5969;50.780;7.726;2023-03-23T13:49:22;14.40;99.90
11824;DHT22;5969;50.780;7.726;2023-03-23T13:52:22;14.40;99.90
11824;DHT22;5969;50.780;7.726;2023-03-23T13:55:07;14.40;99.90
11824;DHT22;5969;50.780;7.726;2023-03-23T13:57:37;14.40;99.90
11824;DHT22;5969;50.780;7.726;2023-03-23T14:00:46;14.40;99.90
11824;DHT22;5969;50.780;7.726;2023-03-23T14:03:16;14.50;99.90
11824;DHT22;5969;50.780;7.726;2023-03-23T14:05:48;14.70;99.90
11824;DHT22;5969;50.780;7.726;2023-03-23T14:08:25;14.80;99.90
11824;DHT22;5969;50.780;7.726;2023-03-23T14:11:11;14.80;99.90
11824;DHT22;5969;50.780;7.726;2023-03-23T14:13:44;15.00;99.90
11824;DHT22;5969;50.780;7.726;2023-03-23T14:16:17;15.10;99.90
11824;DHT22;5969;50.780;7.726;2023-03-23T14:18:51;15.10;99.90
11824;DHT22;5969;50.780;7.726;2023-03-23T14:21:32;15.00;99.90
11824;DHT22;5969;50.780;7.726;2023-03-23T14:24:01;15.20;99.90
11824;DHT22;5969;50.780;7.726;2023-03-23T14:26:33;14.80;99.90
11824;DHT22;5969;50.780;7.726;2023-03-23T14:29:01;14.70;99.90
11824;DHT22;5969;50.780;7.726;2023-03-23T14:31:28;14.60;99.90
11824;DHT22;5969;50.780;7.726;2023-03-23T14:33:56;14.60;99.90
11824;DHT22;5969;50.780;7.726;2023-03-23T14:36:26;14.60;99.90
11824;DHT22;5969;50.780;7.726;2023-03-23T14:39:02;14.40;99.90
11824;DHT22;5969;50.780;7.726;2023-03-23T14:41:31;14.50;99.90
11824;DHT22;5969;50.780;7.726;2023-03-23T14:44:00;14.40;99.90
11824;DHT22;5969;50.780;7.726;2023-03-23T14:46:29;14.60;99.90
11824;DHT22;5969;50.780;7.726;2023-03-23T14:49:04;14.80;99.90
11824;DHT22;5969;50.780;7.726;2023-03-23T14:51:32;15.30;99.90
11824;DHT22;5969;50.780;7.726;2023-03-23T14:53:59;15.60;99.90
11824;DHT22;5969;50.780;7.726;2023-03-23T14:56:34;15.50;99.90
11824;DHT22;5969;50.780;7.726;2023-03-23T14:59:10;15.40;99.90
11824;DHT22;5969;50.780;7.726;2023-03-23T15:01:44;15.30;99.90
11824;DHT22;5969;50.780;7.726;2023-03-23T15:04:15;15.20;99.90
11824;DHT22;5969;50.780;7.726;2023-03-23T15:06:45;15.20;99.90
11824;DHT22;5969;50.780;7.726;2023-03-23T15:09:15;15.10;99.90
11824;DHT22;5969;50.780;7.726;2023-03-23T15:11:52;14.80;99.90
11824;DHT22;5969;50.780;7.726;2023-03-23T15:14:23;14.80;99.90
11824;DHT22;5969;50.780;7.726;2023-03-23T15:16:52;14.80;99.90
11824;DHT22;5969;50.780;7.726;2023-03-23T15:19:33;14.70;99.90
11824;DHT22;5969;50.780;7.726;2023-03-23T15:22:07;14.80;99.90
11824;DHT22;5969;50.780;7.726;2023-03-23T15:24:40;14.70;99.90
11824;DHT22;5969;50.780;7.726;2023-03-23T15:27:24;15.00;99.90
11824;DHT22;5969;50.780;7.726;2023-03-23T15:29:53;15.10;99.90
11824;DHT22;5969;50.780;7.726;2023-03-23T15:32:26;15.70;99.90
11824;DHT22;5969;50.780;7.726;2023-03-23T15:34:54;17.20;99.90
11824;DHT22;5969;50.780;7.726;2023-03-23T15:37:28;16.50;99.90
11824;DHT22;5969;50.780;7.726;2023-03-23T15:40:15;15.60;99.90
11824;DHT22;5969;50.780;7.726;2023-03-23T15:42:45;15.20;99.90
11824;DHT22;5969;50.780;7.726;2023-03-23T15:45:23;14.80;99.90
11824;DHT22;5969;50.780;7.726;2023-03-23T15:47:50;14.70;99.90
11824;DHT22;5969;50.780;7.726;2023-03-23T15:50:33;14.40;99.90
11824;DHT22;5969;50.780;7.726;2023-03-23T15:53:19;14.40;99.90
11824;DHT22;5969;50.780;7.726;2023-03-23T15:56:02;14.60;99.90
11824;DHT22;5969;50.780;7.726;2023-03-23T15:58:44;14.70;99.90
11824;DHT22;5969;50.780;7.726;2023-03-23T16:01:20;14.60;99.90
11824;DHT22;5969;50.780;7.726;2023-03-23T16:04:11;14.50;99.90
11824;DHT22;5969;50.780;7.726;2023-03-23T16:06:55;14.40;99.90
11824;DHT22;5969;50.780;7.726;2023-03-23T16:09:23;14.30;99.90
11824;DHT22;5969;50.780;7.726;2023-03-23T16:11:56;14.30;99.90
11824;DHT22;5969;50.780;7.726;2023-03-23T16:14:25;14.50;99.90
11824;DHT22;5969;50.780;7.726;2023-03-23T16:16:59;14.60;99.90
11824;DHT22;5969;50.780;7.726;2023-03-23T16:19:25;14.60;99.90
11824;DHT22;5969;50.780;7.726;2023-03-23T16:21:57;14.60;99.90
11824;DHT22;5969;50.780;7.726;2023-03-23T16:24:24;14.90;99.90
11824;DHT22;5969;50.780;7.726;2023-03-23T16:26:50;15.10;99.90
11824;DHT22;5969;50.780;7.726;2023-03-23T16:29:26;15.60;99.90
11824;DHT22;5969;50.780;7.726;2023-03-23T16:31:53;15.60;99.90